Time;durP1;ratioP1;P1;durP2;ratioP2;P2;SDS_P1;SDS_P2;PMS_P1;PMS_P2;Temp;Humidity;BMP_temperature;BMP_pressure;BME280_temperature;BME280_humidity;BME280_pressure;Samples;Min_cycle;Max_cycle;Signal;HPM_P1;HPM_P2
2023/09/06 00:00:45;;;;;;;144.77;138.55;;;;;;;28.54;44.59;101736.53;5045484;28;20492;-73
2023/09/06 00:03:11;;;;;;;150.48;144.05;;;;;;;28.51;44.78;101748.34;5042432;28;20087;-73
2023/09/06 00:05:41;;;;;;;154.70;148.20;;;;;;;28.50;44.63;101743.09;5043958;28;20033;-73
2023/09/06 00:08:14;;;;;;;148.88;142.55;;;;;;;28.48;44.63;101743.47;5047012;28;20033;-73
2023/09/06 00:10:41;;;;;;;145.50;139.30;;;;;;;28.44;44.64;101740.53;5048059;28;20362;-74
2023/09/06 00:13:08;;;;;;;146.07;139.88;;;;;;;28.42;44.63;101739.22;5042850;28;20041;-73
2023/09/06 00:15:34;;;;;;;147.35;141.05;;;;;;;28.39;44.76;101735.16;5044851;28;20162;-73
2023/09/06 00:18:00;;;;;;;143.32;137.13;;;;;;;28.37;44.84;101743.00;5042589;28;20048;-74
2023/09/06 00:20:26;;;;;;;144.18;137.95;;;;;;;28.34;44.78;101740.91;5056650;28;20029;-73
2023/09/06 00:22:59;;;;;;;149.70;143.38;;;;;;;28.33;44.66;101741.28;5044035;28;20048;-73
2023/09/06 00:25:27;;;;;;;142.93;136.82;;;;;;;28.29;44.86;101735.56;5042365;28;20088;-73
2023/09/06 00:27:55;;;;;;;146.40;139.67;;;;;;;28.27;44.75;101737.88;5045279;28;20067;-73
2023/09/06 00:30:20;;;;;;;145.73;139.48;;;;;;;28.24;44.77;101741.34;5044286;28;20036;-73
2023/09/06 00:32:47;;;;;;;144.75;138.60;;;;;;;28.21;44.54;101740.03;5046130;28;20025;-73
2023/09/06 00:35:14;;;;;;;144.10;138.05;;;;;;;28.19;44.69;101742.34;5054678;28;20017;-73
2023/09/06 00:37:40;;;;;;;140.70;134.70;;;;;;;28.18;44.37;101743.50;5042990;28;20047;-73
2023/09/06 00:40:21;;;;;;;146.68;140.48;;;;;;;28.16;44.81;101742.22;5047482;28;20037;-73
2023/09/06 00:42:59;;;;;;;142.70;136.65;;;;;;;28.11;44.77;101736.88;5049605;28;20024;-74
2023/09/06 00:45:28;;;;;;;147.73;141.32;;;;;;;28.09;44.68;101737.19;5049611;28;20032;-74
2023/09/06 00:47:55;;;;;;;154.65;148.02;;;;;;;28.07;44.73;101739.50;5040523;28;20082;-73
2023/09/06 00:50:22;;;;;;;139.90;133.75;;;;;;;28.03;44.65;101739.38;5043991;28;20024;-73
2023/09/06 00:52:49;;;;;;;143.23;137.10;;;;;;;28.02;44.64;101743.31;5043239;28;20036;-73
2023/09/06 00:55:14;;;;;;;142.52;136.32;;;;;;;28.00;44.43;101742.00;5045672;28;20030;-73
2023/09/06 00:57:40;;;;;;;143.77;137.68;;;;;;;27.98;44.81;101750.66;5042866;28;20032;-73
2023/09/06 01:00:40;;;;;;;142.38;136.38;;;;;;;27.96;44.62;101744.63;5035798;28;20049;-73
2023/09/06 01:02:59;;;;;;;138.63;132.70;;;;;;;27.92;44.63;101754.81;5047909;28;20477;-73
2023/09/06 01:05:28;;;;;;;140.90;134.55;;;;;;;27.91;44.76;101749.59;5047577;28;20044;-73
2023/09/06 01:08:00;;;;;;;144.15;138.05;;;;;;;27.89;44.60;101749.09;5039496;28;20037;-73
2023/09/06 01:10:25;;;;;;;145.63;139.35;;;;;;;27.87;44.62;101745.84;5045084;28;20036;-73
2023/09/06 01:12:54;;;;;;;141.15;135.00;;;;;;;27.83;44.75;101754.84;5055253;28;20393;-73
2023/09/06 01:15:21;;;;;;;141.35;135.10;;;;;;;27.82;44.57;101755.16;5047462;28;20037;-74
2023/09/06 01:17:48;;;;;;;139.35;133.35;;;;;;;27.79;44.77;101755.81;5045229;28;20024;-73
2023/09/06 01:20:16;;;;;;;139.05;133.13;;;;;;;27.77;44.71;101755.34;5045898;28;20021;-73
2023/09/06 01:22:53;;;;;;;137.13;130.98;;;;;;;27.75;44.63;101749.34;5045281;28;20040;-73
2023/09/06 01:25:19;;;;;;;139.30;133.30;;;;;;;27.71;44.57;101749.16;5040369;28;20028;-73
2023/09/06 01:27:45;;;;;;;137.95;132.05;;;;;;;27.70;44.81;101749.53;5066991;28;20041;-73
2023/09/06 01:30:11;;;;;;;138.63;132.70;;;;;;;27.68;44.70;101749.84;5054104;28;20104;-73
2023/09/06 01:32:37;;;;;;;135.55;129.77;;;;;;;27.67;44.61;101752.94;5043463;28;20038;-73
2023/09/06 01:35:03;;;;;;;141.43;135.38;;;;;;;27.63;44.42;101750.84;5042891;28;20401;-73
2023/09/06 01:37:29;;;;;;;141.30;135.15;;;;;;;27.63;44.56;101755.59;5042225;28;20029;-74
2023/09/06 01:39:55;;;;;;;140.32;134.27;;;;;;;27.60;44.75;101754.28;5050907;28;20049;-73
2023/09/06 01:42:22;;;;;;;143.95;137.85;;;;;;;27.58;44.83;101756.59;5048686;28;20028;-73
2023/09/06 01:44:48;;;;;;;137.70;131.82;;;;;;;27.56;44.87;101758.88;5051707;28;20496;-74
2023/09/06 01:47:14;;;;;;;134.30;128.60;;;;;;;27.54;44.54;101755.66;5048530;28;20037;-74
2023/09/06 01:49:39;;;;;;;139.88;133.77;;;;;;;27.52;44.65;101749.59;5050853;28;20028;-74
2023/09/06 01:52:05;;;;;;;137.10;131.20;;;;;;;27.50;44.67;101751.09;5051842;28;20107;-73
2023/09/06 01:54:30;;;;;;;136.02;130.05;;;;;;;27.49;44.65;101755.81;5043443;28;20088;-74
2023/09/06 01:56:56;;;;;;;135.50;129.60;;;;;;;27.47;44.57;101755.34;5044773;28;20432;-73
2023/09/06 01:59:21;;;;;;;139.02;132.82;;;;;;;27.46;44.71;101755.66;5063257;28;20037;-74
2023/09/06 02:01:53;;;;;;;136.05;130.23;;;;;;;27.44;44.32;101753.22;5050652;28;20684;-74
2023/09/06 02:04:18;;;;;;;133.43;127.60;;;;;;;27.44;44.41;101766.28;5060631;28;20076;-74
2023/09/06 02:06:44;;;;;;;137.80;131.98;;;;;;;27.40;44.79;101757.81;5051639;28;20120;-75
2023/09/06 02:09:09;;;;;;;135.35;129.48;;;;;;;27.37;44.60;101753.75;5043562;28;20413;-74
2023/09/06 02:11:35;;;;;;;137.20;131.30;;;;;;;27.36;44.62;101757.66;5049606;28;20485;-74
2023/09/06 02:14:00;;;;;;;134.98;128.98;;;;;;;27.34;44.51;101750.81;5052914;28;20032;-74
2023/09/06 02:16:25;;;;;;;136.07;130.18;;;;;;;27.33;44.32;101757.53;5035498;28;20030;-73
2023/09/06 02:18:51;;;;;;;133.18;127.40;;;;;;;27.30;44.53;101753.44;5042781;28;20033;-74
2023/09/06 02:21:16;;;;;;;132.38;126.57;;;;;;;27.29;44.54;101759.31;5034295;28;20045;-74
2023/09/06 02:23:41;;;;;;;133.32;127.43;;;;;;;27.26;44.56;101754.44;5052607;28;20041;-74
2023/09/06 02:26:07;;;;;;;132.52;126.60;;;;;;;27.24;44.44;101756.72;5051096;28;20040;-75
2023/09/06 02:28:34;;;;;;;132.65;126.95;;;;;;;27.22;44.49;101756.28;5043786;28;20417;-74
2023/09/06 02:30:59;;;;;;;134.43;128.55;;;;;;;27.19;44.69;101755.78;5045792;28;20029;-74
2023/09/06 02:33:25;;;;;;;139.45;133.50;;;;;;;27.16;44.79;101756.38;5045662;28;20048;-74
2023/09/06 02:35:50;;;;;;;133.23;127.47;;;;;;;27.15;44.58;101756.75;5037527;28;20030;-74
2023/09/06 02:38:16;;;;;;;132.45;126.38;;;;;;;27.12;44.61;101755.44;5054463;28;20036;-74
2023/09/06 02:40:41;;;;;;;130.90;125.22;;;;;;;27.11;44.52;101759.34;5070797;28;20036;-74
2023/09/06 02:43:07;;;;;;;129.95;124.15;;;;;;;27.09;44.44;101758.03;5062659;28;20357;-74
2023/09/06 02:45:38;;;;;;;137.60;131.73;;;;;;;27.06;44.67;101751.19;5038984;28;20048;-74
2023/09/06 02:48:16;;;;;;;130.50;124.50;;;;;;;27.04;44.34;101755.44;5057682;28;20036;-74
2023/09/06 02:50:44;;;;;;;132.02;126.38;;;;;;;27.02;44.53;101769.66;5042877;28;20037;-74
2023/09/06 02:53:19;;;;;;;135.63;129.70;;;;;;;26.98;44.61;101765.91;5048086;28;20045;-74
2023/09/06 02:55:47;;;;;;;131.20;125.53;;;;;;;26.96;44.74;101760.72;5051438;28;20496;-74
2023/09/06 02:58:15;;;;;;;134.60;128.60;;;;;;;26.94;44.56;101760.22;5041005;28;20091;-73
2023/09/06 03:00:43;;;;;;;129.68;124.10;;;;;;;26.94;44.64;101762.19;5047650;28;20499;-74
2023/09/06 03:03:08;;;;;;;132.10;126.40;;;;;;;26.91;44.77;101762.81;5046772;28;20037;-74
2023/09/06 03:05:41;;;;;;;129.77;124.03;;;;;;;26.88;44.74;101766.25;5045874;28;20057;-74
2023/09/06 03:08:07;;;;;;;130.90;125.10;;;;;;;26.86;44.80;101763.00;5039090;28;20052;-74
2023/09/06 03:10:33;;;;;;;129.18;123.38;;;;;;;26.84;44.50;101768.88;5050856;28;20079;-74
2023/09/06 03:12:59;;;;;;;130.98;125.28;;;;;;;26.82;44.84;101757.31;5055389;28;20038;-74
2023/09/06 03:15:28;;;;;;;129.52;123.97;;;;;;;26.81;44.84;101757.63;5053683;28;20083;-74
2023/09/06 03:18:01;;;;;;;138.43;132.38;;;;;;;26.79;44.82;101759.91;5039598;28;20037;-74
2023/09/06 03:23:16;;;;;;;129.65;124.05;;;;;;;26.73;44.65;101760.06;5043392;28;20120;-74
2023/09/06 03:25:42;;;;;;;129.20;123.55;;;;;;;26.71;44.38;101764.31;5051100;28;20038;-74
2023/09/06 03:28:08;;;;;;;127.63;122.07;;;;;;;26.69;44.70;101767.44;5048898;28;20041;-74
2023/09/06 03:30:34;;;;;;;131.15;125.35;;;;;;;26.67;44.86;101766.13;5041359;28;20094;-74
2023/09/06 03:32:59;;;;;;;129.65;124.07;;;;;;;26.64;44.69;101766.78;5037408;28;20094;-74
2023/09/06 03:35:25;;;;;;;127.50;121.95;;;;;;;26.62;44.80;101769.88;5033493;28;20397;-74
2023/09/06 03:37:51;;;;;;;130.68;125.00;;;;;;;26.61;44.59;101770.19;5047528;28;20499;-74
2023/09/06 03:40:25;;;;;;;133.60;127.78;;;;;;;26.59;44.93;101776.09;5038879;28;20025;-74
2023/09/06 03:42:54;;;;;;;129.25;123.65;;;;;;;26.57;44.73;101772.81;5053295;28;20035;-74
2023/09/06 03:45:24;;;;;;;125.90;120.38;;;;;;;26.54;44.68;101779.03;5044552;28;20033;-74
2023/09/06 03:47:53;;;;;;;129.57;124.03;;;;;;;26.52;44.98;101778.50;5046390;28;20059;-74
2023/09/06 03:50:21;;;;;;;130.23;124.53;;;;;;;26.51;44.53;101771.31;5046467;28;20481;-74
2023/09/06 03:52:47;;;;;;;126.13;120.72;;;;;;;26.48;44.51;101780.28;5055072;28;20403;-74
2023/09/06 03:55:12;;;;;;;127.60;122.10;;;;;;;26.47;44.57;101786.97;5048189;28;20501;-74
2023/09/06 03:57:38;;;;;;;126.70;121.22;;;;;;;26.44;44.90;101782.91;5051443;28;20045;-74
2023/09/06 04:02:49;;;;;;;124.45;119.05;;;;;;;26.38;44.85;101783.38;5047832;28;20111;-74
2023/09/06 04:05:15;;;;;;;130.68;124.78;;;;;;;26.37;44.98;101788.09;5036977;28;20128;-74
2023/09/06 04:07:40;;;;;;;123.35;117.95;;;;;;;26.34;44.75;101786.78;5034820;28;20410;-75
2023/09/06 04:10:16;;;;;;;127.40;121.68;;;;;;;26.33;44.52;101781.56;5037664;28;20056;-73
2023/09/06 04:12:43;;;;;;;127.47;121.90;;;;;;;26.31;44.78;101781.09;5045857;28;20096;-75
2023/09/06 04:15:09;;;;;;;124.68;119.25;;;;;;;26.27;44.82;101780.91;5058040;28;20395;-74
2023/09/06 04:17:35;;;;;;;125.30;119.82;;;;;;;26.26;44.76;101784.84;5038160;28;20387;-74
2023/09/06 04:20:00;;;;;;;125.57;120.18;;;;;;;26.24;44.76;101784.34;5044032;28;20048;-74
2023/09/06 04:22:26;;;;;;;124.20;118.85;;;;;;;26.22;45.01;101783.84;5041181;28;20033;-74
2023/09/06 04:24:51;;;;;;;122.80;117.47;;;;;;;26.19;44.73;101790.03;5046992;28;21011;-74
2023/09/06 04:27:16;;;;;;;130.25;124.65;;;;;;;26.16;44.83;101787.91;5045331;28;20434;-75
2023/09/06 04:29:42;;;;;;;123.68;118.25;;;;;;;26.15;44.74;101789.03;5049692;28;20045;-74
2023/09/06 04:32:07;;;;;;;122.07;116.80;;;;;;;26.12;44.83;101789.69;5062225;28;20040;-74
2023/09/06 04:34:33;;;;;;;124.80;119.38;;;;;;;26.08;44.75;101792.31;5053558;28;20037;-73
2023/09/06 04:36:58;;;;;;;124.45;119.05;;;;;;;26.07;44.79;101787.88;5038660;28;20040;-73
2023/09/06 04:39:28;;;;;;;122.97;117.63;;;;;;;26.06;45.09;101793.78;5038624;28;20041;-74
2023/09/06 04:41:53;;;;;;;124.00;118.50;;;;;;;26.03;44.98;101799.94;5049667;28;20432;-74
2023/09/06 04:44:24;;;;;;;124.18;118.78;;;;;;;26.00;45.06;101795.84;5040091;28;20496;-74
2023/09/06 04:46:49;;;;;;;124.10;118.78;;;;;;;25.99;44.96;101799.78;5033599;28;20481;-73
2023/09/06 04:49:15;;;;;;;124.22;118.63;;;;;;;25.97;45.19;101792.91;5046596;28;20044;-73
2023/09/06 04:51:40;;;;;;;121.60;116.25;;;;;;;25.94;45.09;101794.38;5049296;28;20349;-74
2023/09/06 04:54:09;;;;;;;120.88;115.57;;;;;;;25.93;44.83;101794.69;5031634;28;20115;-74
2023/09/06 04:56:34;;;;;;;121.78;116.38;;;;;;;25.90;45.17;101796.16;5036983;28;20059;-74
2023/09/06 04:59:00;;;;;;;123.22;117.82;;;;;;;25.88;44.98;101802.03;5048753;28;20087;-74
2023/09/06 05:01:26;;;;;;;118.28;112.88;;;;;;;25.86;44.76;101797.94;5038764;28;20037;-72
2023/09/06 05:03:52;;;;;;;117.80;112.60;;;;;;;25.84;45.21;101803.75;5048656;28;20025;-76
2023/09/06 05:06:17;;;;;;;120.72;115.40;;;;;;;25.82;45.13;101800.50;5045398;28;20041;-75
2023/09/06 05:08:43;;;;;;;119.97;114.72;;;;;;;25.80;45.21;101804.72;5046072;28;20040;-75
2023/09/06 05:11:08;;;;;;;120.45;114.65;;;;;;;25.78;45.03;101805.06;5041997;28;20124;-72
2023/09/06 05:13:35;;;;;;;123.28;117.88;;;;;;;25.75;44.86;101799.31;5039244;28;20033;-74
2023/09/06 05:16:01;;;;;;;121.10;115.75;;;;;;;25.74;44.99;101808.78;5046451;28;20507;-73
2023/09/06 05:18:27;;;;;;;122.38;116.97;;;;;;;25.71;45.14;101801.13;5041557;28;20033;-73
2023/09/06 05:20:52;;;;;;;119.93;114.70;;;;;;;25.69;45.09;101810.53;5039583;28;20037;-75
2023/09/06 05:23:18;;;;;;;123.38;117.85;;;;;;;25.67;44.91;101809.22;5037893;28;20077;-75
2023/09/06 05:25:43;;;;;;;120.68;115.38;;;;;;;25.65;45.30;101814.25;5042677;28;20115;-76
2023/09/06 05:28:10;;;;;;;118.18;112.95;;;;;;;25.64;45.20;101812.66;5037247;28;20029;-75
2023/09/06 05:30:43;;;;;;;119.88;114.47;;;;;;;25.61;45.20;101816.06;5037048;28;20032;-76
2023/09/06 05:33:09;;;;;;;119.70;114.47;;;;;;;25.58;45.11;101828.56;5042132;28;20155;-76
2023/09/06 05:35:35;;;;;;;118.28;113.05;;;;;;;25.56;45.02;101832.78;5046856;28;20074;-77
2023/09/06 05:38:04;;;;;;;117.18;111.78;;;;;;;25.55;45.34;101839.44;5047927;28;20037;-74
2023/09/06 05:40:30;;;;;;;;;;;;;;;25.47;45.32;101838.28;5053335;28;20040;-74
2023/09/06 05:42:56;;;;;;;115.30;110.05;;;;;;;25.47;45.22;101836.31;5055588;28;19913;-74
2023/09/06 05:45:22;;;;;;;117.22;112.03;;;;;;;25.46;45.33;101834.69;5047246;28;20394;-74
2023/09/06 05:47:48;;;;;;;115.78;110.57;;;;;;;25.44;45.06;101831.41;5035371;28;20041;-75
2023/09/06 05:50:14;;;;;;;119.32;114.13;;;;;;;25.41;45.43;101837.59;5035994;28;20037;-75
2023/09/06 05:52:39;;;;;;;117.18;111.97;;;;;;;25.39;45.08;101845.38;5047831;28;20048;-75
2023/09/06 05:55:06;;;;;;;118.05;112.75;;;;;;;25.38;45.26;101838.22;5043387;28;20133;-75
2023/09/06 05:57:32;;;;;;;117.95;112.10;;;;;;;25.36;45.15;101836.91;5044398;28;20036;-74
2023/09/06 05:59:57;;;;;;;116.68;111.28;;;;;;;25.35;45.45;101843.56;5050880;28;20037;-75
2023/09/06 06:02:24;;;;;;;121.35;116.05;;;;;;;25.34;45.60;101845.53;5039600;28;20037;-78
2023/09/06 06:04:50;;;;;;;115.72;110.65;;;;;;;25.32;45.09;101836.72;5038170;28;20251;-77
2023/09/06 06:07:16;;;;;;;119.13;113.82;;;;;;;25.31;45.43;101837.88;5033673;28;20136;-77
2023/09/06 06:09:42;;;;;;;116.07;110.80;;;;;;;25.29;45.13;101833.78;5043676;28;20464;-74
2023/09/06 06:12:08;;;;;;;115.10;109.95;;;;;;;25.28;45.63;101843.22;5048363;28;20059;-76
2023/09/06 06:14:35;;;;;;;115.25;110.05;;;;;;;25.26;45.21;101836.03;5039147;28;20045;-76
2023/09/06 06:17:00;;;;;;;115.88;110.68;;;;;;;25.24;45.26;101843.81;5037859;28;20068;-76
2023/09/06 06:19:26;;;;;;;115.90;110.60;;;;;;;25.22;45.38;101839.75;5042316;28;20072;-76
2023/09/06 06:21:51;;;;;;;113.88;108.90;;;;;;;25.20;45.56;101840.09;5038538;28;20115;-76
2023/09/06 06:24:17;;;;;;;116.35;111.15;;;;;;;25.20;45.61;101844.78;5041482;28;20042;-77
2023/09/06 06:26:43;;;;;;;112.63;107.63;;;;;;;25.18;45.31;101847.06;5033177;28;20041;-77
2023/09/06 06:29:08;;;;;;;121.38;116.05;;;;;;;25.18;45.43;101847.06;5049399;28;20044;-76
2023/09/06 06:31:34;;;;;;;114.38;109.28;;;;;;;25.16;45.21;101850.13;5046193;28;20264;-76
2023/09/06 06:33:59;;;;;;;114.22;109.03;;;;;;;25.15;45.61;101851.25;5035143;28;20033;-77
2023/09/06 06:36:30;;;;;;;118.15;112.93;;;;;;;25.14;45.33;101843.25;5049764;28;20124;-76
2023/09/06 06:38:56;;;;;;;114.30;109.20;;;;;;;25.12;45.58;101853.78;5050962;28;20489;-77
2023/09/06 06:41:22;;;;;;;114.75;109.72;;;;;;;25.11;45.54;101852.19;5043304;28;20041;-77
2023/09/06 06:43:54;;;;;;;115.70;110.53;;;;;;;25.09;45.47;101858.00;5041988;28;20037;-76
2023/09/06 06:46:30;;;;;;;121.00;115.68;;;;;;;25.07;45.42;101851.16;5045460;28;20388;-75
2023/09/06 06:48:57;;;;;;;112.00;107.00;;;;;;;25.05;45.67;101844.00;5044540;28;20084;-77
2023/09/06 06:51:25;;;;;;;113.53;108.43;;;;;;;25.05;45.58;101854.25;5049840;28;20086;-76
2023/09/06 06:53:51;;;;;;;114.40;109.40;;;;;;;25.04;45.38;101864.47;5052987;28;20052;-77
2023/09/06 06:56:21;;;;;;;114.75;109.55;;;;;;;25.03;45.64;101859.28;5038642;28;20037;-75
2023/09/06 06:58:50;;;;;;;116.95;111.82;;;;;;;25.03;45.40;101862.03;5050778;28;20032;-76
2023/09/06 07:01:16;;;;;;;114.05;109.05;;;;;;;25.03;45.33;101873.09;5059839;28;20041;-75
2023/09/06 07:03:41;;;;;;;119.72;114.43;;;;;;;25.03;45.60;101867.56;5048320;28;20033;-77
2023/09/06 07:06:08;;;;;;;113.55;108.55;;;;;;;25.01;45.49;101870.63;5052486;28;20078;-76
2023/09/06 07:08:33;;;;;;;113.65;108.45;;;;;;;25.01;45.61;101878.94;5041958;28;20045;-75
2023/09/06 07:11:00;;;;;;;112.03;107.03;;;;;;;25.01;45.63;101870.63;5059449;28;20028;-77
2023/09/06 07:13:25;;;;;;;113.43;108.13;;;;;;;25.02;45.20;101872.28;5049401;28;20484;-75
2023/09/06 07:15:51;;;;;;;114.63;109.45;;;;;;;25.02;45.53;101871.44;5037210;28;20041;-77
2023/09/06 07:18:16;;;;;;;118.32;112.75;;;;;;;25.02;45.53;101868.69;5032580;28;20497;-78
2023/09/06 07:20:42;;;;;;;109.85;104.97;;;;;;;25.02;45.63;101864.00;5033546;28;20029;-75
2023/09/06 07:23:07;;;;;;;111.80;106.75;;;;;;;25.03;45.27;101871.16;5049048;28;20465;-76
2023/09/06 07:25:33;;;;;;;111.72;106.78;;;;;;;25.03;45.27;101868.38;5039246;28;20051;-77
2023/09/06 07:27:59;;;;;;;113.75;108.72;;;;;;;25.04;45.49;101874.72;5044270;28;20044;-76
2023/09/06 07:30:25;;;;;;;113.05;107.63;;;;;;;25.04;45.76;101870.00;5041223;28;20044;-76
2023/09/06 07:32:50;;;;;;;113.20;108.10;;;;;;;25.04;45.86;101877.50;5042107;28;20041;-76
2023/09/06 07:35:16;;;;;;;110.65;105.75;;;;;;;25.04;45.37;101878.28;5050867;28;20398;-76
2023/09/06 07:37:43;;;;;;;119.75;114.35;;;;;;;25.04;45.75;101878.28;5044115;28;20488;-75
2023/09/06 07:40:09;;;;;;;111.05;106.07;;;;;;;25.06;45.71;101872.47;5047582;28;20039;-75
2023/09/06 07:42:41;;;;;;;111.90;106.80;;;;;;;25.05;45.46;101868.91;5047273;28;20053;-77
2023/09/06 07:45:07;;;;;;;114.32;109.13;;;;;;;25.06;45.50;101875.22;5040017;28;20065;-75
2023/09/06 07:47:33;;;;;;;113.03;107.97;;;;;;;25.08;45.86;101884.03;5045052;28;20037;-76
2023/09/06 07:49:59;;;;;;;112.80;107.78;;;;;;;25.10;46.10;101880.94;5047903;28;20029;-76
2023/09/06 07:52:24;;;;;;;117.07;111.57;;;;;;;25.09;45.70;101885.66;5060525;28;20029;-76
2023/09/06 07:54:49;;;;;;;113.43;108.18;;;;;;;25.13;46.19;101885.88;5048963;28;20055;-76
2023/09/06 07:57:15;;;;;;;109.80;104.85;;;;;;;25.14;45.83;101891.06;5046849;28;20529;-76
2023/09/06 07:59:40;;;;;;;115.93;109.70;;;;;;;25.17;46.10;101890.47;5041810;28;20037;-77
2023/09/06 08:02:06;;;;;;;116.78;111.32;;;;;;;25.21;46.38;101890.66;5047090;28;20033;-76
2023/09/06 08:04:31;;;;;;;112.05;107.00;;;;;;;25.22;46.58;101895.88;5062663;28;20358;-78
2023/09/06 08:06:57;;;;;;;116.70;111.35;;;;;;;25.26;46.17;101898.84;5046717;28;20056;-76
2023/09/06 08:09:23;;;;;;;111.45;106.28;;;;;;;25.29;46.29;101895.44;5047445;28;20278;-76
2023/09/06 08:11:48;;;;;;;112.75;107.57;;;;;;;25.33;46.13;101896.44;5046457;28;20049;-75
2023/09/06 08:14:14;;;;;;;111.22;106.13;;;;;;;25.36;46.73;101895.81;5051560;28;20510;-78
2023/09/06 08:16:39;;;;;;;111.22;106.05;;;;;;;25.41;46.31;101903.16;5045653;28;20029;-75
2023/09/06 08:19:04;;;;;;;110.63;105.68;;;;;;;25.46;46.69;101901.09;5048805;28;20517;-76
2023/09/06 08:21:30;;;;;;;109.70;104.88;;;;;;;25.51;46.32;101904.88;5045981;28;20041;-76
2023/09/06 08:23:56;;;;;;;107.00;102.30;;;;;;;25.55;46.50;101903.91;5049235;28;20432;-76
2023/09/06 08:26:21;;;;;;;115.25;109.68;;;;;;;25.62;46.59;101904.25;5043312;28;20029;-76
2023/09/06 08:28:47;;;;;;;112.43;107.32;;;;;;;25.66;46.70;101896.16;5041355;28;20389;-76
2023/09/06 08:31:12;;;;;;;116.65;111.32;;;;;;;25.71;46.70;101898.78;5037329;28;20060;-75
2023/09/06 08:33:37;;;;;;;114.68;109.47;;;;;;;25.76;46.98;101897.84;5044976;28;20056;-76
2023/09/06 08:36:03;;;;;;;116.03;110.63;;;;;;;25.82;46.70;101894.59;5050640;28;20068;-76
2023/09/06 08:38:28;;;;;;;118.60;113.03;;;;;;;25.88;47.26;101893.38;5045846;28;20178;-75
2023/09/06 08:40:54;;;;;;;118.10;112.50;;;;;;;25.94;47.40;101894.03;5038641;28;20033;-77
2023/09/06 08:43:19;;;;;;;118.80;113.45;;;;;;;26.00;47.15;101895.50;5046434;28;20060;-75
2023/09/06 08:45:48;;;;;;;115.88;110.65;;;;;;;26.06;47.24;101885.94;5050931;28;20036;-74
2023/09/06 08:48:14;;;;;;;;;;;;;;;26.06;47.33;101894.25;5041918;28;20041;-76
2023/09/06 08:50:40;;;;;;;116.63;111.03;;;;;;;26.17;46.84;101891.19;5043773;28;19913;-75
2023/09/06 08:53:10;;;;;;;122.20;116.63;;;;;;;26.21;47.07;101881.94;5030612;28;20128;-76
2023/09/06 08:55:36;;;;;;;116.18;111.05;;;;;;;26.27;47.14;101891.69;5029994;28;20053;-76
2023/09/06 08:58:05;;;;;;;119.72;114.43;;;;;;;26.33;47.33;101895.97;5040527;28;20036;-75
2023/09/06 09:00:31;;;;;;;120.30;114.70;;;;;;;26.39;47.12;101891.09;5040963;28;20044;-78
2023/09/06 09:02:57;;;;;;;126.75;120.80;;;;;;;26.45;47.21;101895.31;5044494;28;20028;-75
2023/09/06 09:05:23;;;;;;;120.57;115.18;;;;;;;26.51;47.40;101898.75;5047174;28;20066;-75
2023/09/06 09:07:57;;;;;;;124.22;118.43;;;;;;;26.56;47.40;101887.56;5047738;28;20033;-75
2023/09/06 09:10:26;;;;;;;126.28;120.78;;;;;;;26.62;47.50;101891.00;5039673;28;20069;-76
2023/09/06 09:12:52;;;;;;;125.15;119.65;;;;;;;26.67;47.27;101888.06;5037842;28;20095;-75
2023/09/06 09:15:20;;;;;;;124.15;118.75;;;;;;;26.72;47.29;101891.50;5030387;28;20026;-75
2023/09/06 09:17:50;;;;;;;124.05;118.68;;;;;;;26.79;47.45;101892.94;5031180;28;20477;-74
2023/09/06 09:20:15;;;;;;;126.80;121.00;;;;;;;26.84;47.66;101893.63;5045656;28;20401;-75
2023/09/06 09:22:41;;;;;;;125.65;119.97;;;;;;;26.89;47.58;101895.44;5039727;28;20545;-76
2023/09/06 09:25:17;;;;;;;126.32;120.63;;;;;;;26.93;47.52;101890.84;5029921;28;20029;-75
2023/09/06 09:27:46;;;;;;;127.20;121.60;;;;;;;26.99;47.17;101889.56;5040861;28;20033;-75
2023/09/06 09:30:14;;;;;;;125.85;120.25;;;;;;;27.04;47.19;101886.63;5042860;28;20116;-74
2023/09/06 09:32:40;;;;;;;124.43;119.00;;;;;;;27.08;47.54;101893.13;5037759;28;20052;-75
2023/09/06 09:35:10;;;;;;;127.97;122.47;;;;;;;27.13;47.34;101898.50;5030542;28;20038;-75
2023/09/06 09:37:36;;;;;;;129.70;124.00;;;;;;;27.18;47.54;101892.81;5038672;28;20037;-76
2023/09/06 09:40:32;;;;;;;128.18;122.65;;;;;;;27.22;47.46;101894.97;5031782;28;20424;-74
2023/09/06 09:43:02;;;;;;;128.40;122.80;;;;;;;27.29;47.41;101886.94;5045426;28;20043;-74
2023/09/06 09:45:29;;;;;;;126.43;120.93;;;;;;;27.33;47.19;101885.94;5048198;28;20091;-76
2023/09/06 09:47:55;;;;;;;130.13;124.43;;;;;;;27.37;47.46;101892.47;5036500;28;20045;-74
2023/09/06 09:50:22;;;;;;;132.43;126.45;;;;;;;27.44;47.41;101885.59;5032022;28;20033;-73
2023/09/06 09:52:48;;;;;;;127.82;122.22;;;;;;;27.48;47.35;101886.56;5038160;28;20026;-74
2023/09/06 09:55:15;;;;;;;133.75;128.02;;;;;;;27.52;47.04;101885.59;5038438;28;20068;-74
2023/09/06 09:57:45;;;;;;;130.70;125.10;;;;;;;27.58;47.14;101883.44;5041945;28;20029;-74
2023/09/06 10:00:15;;;;;;;129.15;123.30;;;;;;;27.62;47.10;101889.97;5050136;28;20397;-74
2023/09/06 10:02:45;;;;;;;137.35;131.40;;;;;;;27.67;46.94;101880.63;5045652;28;20033;-74
2023/09/06 10:05:20;;;;;;;133.60;127.95;;;;;;;27.70;46.55;101882.75;5050280;28;20040;-74
2023/09/06 10:07:48;;;;;;;131.95;125.90;;;;;;;27.75;46.94;101883.38;5043138;28;20082;-74
2023/09/06 10:10:13;;;;;;;141.23;135.20;;;;;;;27.79;46.81;101881.56;5037533;28;20026;-74
2023/09/06 10:12:48;;;;;;;137.57;131.63;;;;;;;27.82;47.02;101886.50;5037643;28;20068;-74
2023/09/06 10:15:13;;;;;;;131.05;125.43;;;;;;;27.88;46.94;101878.00;5037854;28;20422;-74
2023/09/06 10:17:40;;;;;;;134.32;128.25;;;;;;;27.92;46.96;101871.44;5034998;28;20103;-74
2023/09/06 10:20:12;;;;;;;132.77;126.78;;;;;;;27.96;46.97;101877.94;5038136;28;20529;-75
2023/09/06 10:22:43;;;;;;;135.48;129.63;;;;;;;28.00;47.25;101873.34;5042247;28;20044;-74
2023/09/06 10:25:10;;;;;;;135.20;129.35;;;;;;;28.05;47.15;101873.16;5049474;28;20116;-74
2023/09/06 10:27:45;;;;;;;136.27;130.38;;;;;;;28.10;47.15;101871.31;5041931;28;20049;-73
2023/09/06 10:30:17;;;;;;;138.80;132.88;;;;;;;28.14;47.35;101867.53;5044009;28;20117;-74
2023/09/06 10:32:48;;;;;;;139.93;133.55;;;;;;;28.18;47.01;101864.94;5037178;28;20045;-73
2023/09/06 10:35:30;;;;;;;142.90;136.88;;;;;;;28.20;47.11;101869.00;5047440;28;20112;-73
2023/09/06 10:38:07;;;;;;;141.48;135.38;;;;;;;28.24;47.20;101869.13;5045907;28;20063;-73
2023/09/06 10:40:48;;;;;;;149.77;143.43;;;;;;;28.27;47.06;101862.91;5034808;28;20037;-73
2023/09/06 10:43:14;;;;;;;140.48;134.38;;;;;;;28.32;47.31;101876.59;5045462;28;20103;-73
2023/09/06 10:45:40;;;;;;;135.45;129.68;;;;;;;28.35;47.05;101864.81;5049397;28;20025;-73
2023/09/06 10:48:11;;;;;;;142.55;136.50;;;;;;;28.40;47.11;101861.00;5045075;28;20069;-74
2023/09/06 10:50:37;;;;;;;137.27;131.45;;;;;;;28.43;47.32;101866.72;5046606;28;20079;-73
2023/09/06 10:53:03;;;;;;;141.77;135.68;;;;;;;28.47;47.45;101864.09;5047807;28;20033;-73
2023/09/06 10:55:42;;;;;;;140.20;133.90;;;;;;;28.52;47.49;101865.88;5045481;28;20056;-73
2023/09/06 10:58:09;;;;;;;141.63;135.60;;;;;;;28.55;47.07;101863.25;5050830;28;20397;-73
2023/09/06 11:00:34;;;;;;;137.38;131.50;;;;;;;28.58;46.98;101859.78;5048186;28;20088;-73